Atkinson, North Carolina
Current Conditions -  °F | °C
As of 1:53 AM on Monday 24 Nov 2014 (Local Time) from KILM Reporting Station
Haze Haze  
Wind Chill: 19°   Ceiling: 500
Heat Index: 19°   Visibility: 6mi
Dew Point: 19°   Wind: 8mph
Humidity: 97%   Direction: 180°S
Pressure: 29.84"   Gusts: NA
Location:  34.53°N, 78.17°W
Report Text: KILM 240653Z 18007KT 6SM BR OVC005 19/19 A2984 RMK AO2 SLP104 T01940189
Loading
Personal Weather Stations






























Interactive Weather Map New forecast layout! Learn more

10-Day Weather Forecast

Advertisements
Track Severe Weather on mobile